Time;durP1;ratioP1;P1;durP2;ratioP2;P2;SDS_P1;SDS_P2;PMS_P1;PMS_P2;Temp;Humidity;BMP_temperature;BMP_pressure;BME280_temperature;BME280_humidity;BME280_pressure;Samples;Min_cycle;Max_cycle;Signal;HPM_P1;HPM_P2
2022/04/12 00:00:15;;;;;;;8.749999;3.95;;;;;;;2.68;66.34863;95064.9;;;;
2022/04/12 00:01:16;;;;;;;8.749999;3.95;;;;;;;2.68;66.34863;95064.9;;;;
2022/04/12 00:02:16;;;;;;;8.749999;3.95;;;;;;;2.68;66.34863;95064.9;;;;
2022/04/12 00:03:17;;;;;;;8.749999;3.95;;;;;;;2.68;66.34863;95064.9;;;;
2022/04/12 00:04:17;;;;;;;8.749999;3.95;;;;;;;2.68;66.34863;95064.9;;;;
2022/04/12 00:05:18;;;;;;;8.749999;3.95;;;;;;;2.68;66.34863;95064.9;;;;
2022/04/12 00:06:19;;;;;;;8.749999;3.95;;;;;;;2.68;66.34863;95064.9;;;;
2022/04/12 00:07:19;;;;;;;8.749999;3.95;;;;;;;2.68;66.34863;95064.9;;;;
2022/04/12 00:08:20;;;;;;;4.900001;3.750001;;;;;;;2.67;66.48438;95049.52;;;;
2022/04/12 00:09:21;;;;;;;4.900001;3.750001;;;;;;;2.67;66.48438;95049.52;;;;
2022/04/12 00:10:21;;;;;;;4.900001;3.750001;;;;;;;2.67;66.48438;95049.52;;;;
2022/04/12 00:11:22;;;;;;;4.900001;3.750001;;;;;;;2.67;66.48438;95049.52;;;;
2022/04/12 00:12:23;;;;;;;4.900001;3.750001;;;;;;;2.67;66.48438;95049.52;;;;
2022/04/12 00:13:24;;;;;;;4.900001;3.750001;;;;;;;2.67;66.48438;95049.52;;;;
2022/04/12 00:14:24;;;;;;;4.900001;3.750001;;;;;;;2.67;66.48438;95049.52;;;;
2022/04/12 00:15:25;;;;;;;4.900001;3.750001;;;;;;;2.67;66.48438;95049.52;;;;
2022/04/12 00:16:26;;;;;;;4.900001;3.750001;;;;;;;2.67;66.48438;95049.52;;;;
2022/04/12 00:22:39;;;;;;;4.9;4.05;;;;;;;2.64;66.66895;95043.25;;;;
2022/04/12 00:23:40;;;;;;;4.9;4.05;;;;;;;2.64;66.66895;95043.25;;;;
2022/04/12 00:24:40;;;;;;;4.9;4.05;;;;;;;2.64;66.66895;95043.25;;;;
2022/04/12 00:25:42;;;;;;;4.9;4.05;;;;;;;2.64;66.66895;95043.25;;;;
2022/04/12 00:26:43;;;;;;;4.9;4.05;;;;;;;2.64;66.66895;95043.25;;;;
2022/04/12 00:27:44;;;;;;;4.9;4.05;;;;;;;2.64;66.66895;95043.25;;;;
2022/04/12 00:28:44;;;;;;;4.9;4.05;;;;;;;2.64;66.66895;95043.25;;;;
2022/04/12 00:29:45;;;;;;;5.450001;4.45;;;;;;;2.53;66.98828;95043.78;;;;
2022/04/12 00:30:45;;;;;;;5.450001;4.45;;;;;;;2.53;66.98828;95043.78;;;;
2022/04/12 00:31:46;;;;;;;5.450001;4.45;;;;;;;2.53;66.98828;95043.78;;;;
2022/04/12 00:32:46;;;;;;;5.450001;4.45;;;;;;;2.53;66.98828;95043.78;;;;
2022/04/12 00:33:47;;;;;;;5.450001;4.45;;;;;;;2.53;66.98828;95043.78;;;;
2022/04/12 00:34:48;;;;;;;5.450001;4.45;;;;;;;2.53;66.98828;95043.78;;;;
2022/04/12 00:35:49;;;;;;;5.450001;4.45;;;;;;;2.53;66.98828;95043.78;;;;
2022/04/12 00:36:49;;;;;;;5.450001;4.45;;;;;;;2.53;66.98828;95043.78;;;;
2022/04/12 00:37:50;;;;;;;5.450001;4.45;;;;;;;2.53;66.98828;95043.78;;;;
2022/04/12 00:38:51;;;;;;;5.450001;4.45;;;;;;;2.53;66.98828;95043.78;;;;
2022/04/12 00:39:52;;;;;;;5.450001;4.45;;;;;;;2.53;66.98828;95043.78;;;;
2022/04/12 00:40:54;;;;;;;5.75;4.349999;;;;;;;2.52;67.35547;95043.86;;;;
2022/04/12 00:41:54;;;;;;;5.75;4.349999;;;;;;;2.52;67.35547;95043.86;;;;
2022/04/12 00:42:54;;;;;;;5.75;4.349999;;;;;;;2.52;67.35547;95043.86;;;;
2022/04/12 00:43:55;;;;;;;5.75;4.349999;;;;;;;2.52;67.35547;95043.86;;;;
2022/04/12 00:44:55;;;;;;;5.75;4.349999;;;;;;;2.52;67.35547;95043.86;;;;
2022/04/12 00:46:00;;;;;;;5.75;4.349999;;;;;;;2.52;67.35547;95043.86;;;;
2022/04/12 00:47:00;;;;;;;5.75;4.349999;;;;;;;2.52;67.35547;95043.86;;;;
2022/04/12 00:48:02;;;;;;;5.75;4.349999;;;;;;;2.52;67.35547;95043.86;;;;
2022/04/12 00:49:02;;;;;;;5.75;4.349999;;;;;;;2.52;67.35547;95043.86;;;;
2022/04/12 00:50:03;;;;;;;5.75;4.349999;;;;;;;2.52;67.35547;95043.86;;;;
2022/04/12 00:51:04;;;;;;;5.85;4.15;;;;;;;2.57;67.44824;95046.77;;;;
2022/04/12 00:52:05;;;;;;;5.85;4.15;;;;;;;2.57;67.44824;95046.77;;;;
2022/04/12 00:53:07;;;;;;;5.85;4.15;;;;;;;2.57;67.44824;95046.77;;;;
2022/04/12 00:54:09;;;;;;;5.85;4.15;;;;;;;2.57;67.44824;95046.77;;;;
2022/04/12 00:55:10;;;;;;;5.85;4.15;;;;;;;2.57;67.44824;95046.77;;;;
2022/04/12 00:56:11;;;;;;;5.85;4.15;;;;;;;2.57;67.44824;95046.77;;;;
2022/04/12 00:57:12;;;;;;;5.85;4.15;;;;;;;2.57;67.44824;95046.77;;;;
2022/04/12 00:58:12;;;;;;;5.85;4.15;;;;;;;2.57;67.44824;95046.77;;;;
2022/04/12 00:59:13;;;;;;;5.85;4.15;;;;;;;2.57;67.44824;95046.77;;;;
2022/04/12 01:00:16;;;;;;;5.85;4.15;;;;;;;2.57;67.44824;95046.77;;;;
2022/04/12 01:01:17;;;;;;;5.85;4.15;;;;;;;2.57;67.44824;95046.77;;;;
2022/04/12 01:02:17;;;;;;;4.95;4.149999;;;;;;;2.59;67.58789;95029.27;;;;
2022/04/12 01:03:18;;;;;;;4.95;4.149999;;;;;;;2.59;67.58789;95029.27;;;;
2022/04/12 01:04:19;;;;;;;4.95;4.149999;;;;;;;2.59;67.58789;95029.27;;;;
2022/04/12 01:05:20;;;;;;;4.95;4.149999;;;;;;;2.59;67.58789;95029.27;;;;
2022/04/12 01:06:20;;;;;;;4.95;4.149999;;;;;;;2.59;67.58789;95029.27;;;;
2022/04/12 01:07:21;;;;;;;4.95;4.149999;;;;;;;2.59;67.58789;95029.27;;;;
2022/04/12 01:08:22;;;;;;;4.95;4.149999;;;;;;;2.59;67.58789;95029.27;;;;
2022/04/12 01:09:25;;;;;;;4.95;4.149999;;;;;;;2.59;67.58789;95029.27;;;;
2022/04/12 01:10:27;;;;;;;4.95;4.149999;;;;;;;2.59;67.58789;95029.27;;;;
2022/04/12 01:11:27;;;;;;;4.95;4.149999;;;;;;;2.59;67.58789;95029.27;;;;
2022/04/12 01:12:30;;;;;;;5.45;4.200001;;;;;;;2.48;67.90723;95015.56;;;;
2022/04/12 01:13:31;;;;;;;5.45;4.200001;;;;;;;2.48;67.90723;95015.56;;;;
2022/04/12 01:14:32;;;;;;;5.45;4.200001;;;;;;;2.48;67.90723;95015.56;;;;
2022/04/12 01:15:33;;;;;;;5.45;4.200001;;;;;;;2.48;67.90723;95015.56;;;;
2022/04/12 01:16:33;;;;;;;5.45;4.200001;;;;;;;2.48;67.90723;95015.56;;;;
2022/04/12 01:17:33;;;;;;;5.45;4.200001;;;;;;;2.48;67.90723;95015.56;;;;
2022/04/12 01:18:34;;;;;;;5.45;4.200001;;;;;;;2.48;67.90723;95015.56;;;;
2022/04/12 01:19:35;;;;;;;5.45;4.200001;;;;;;;2.48;67.90723;95015.56;;;;
2022/04/12 01:20:35;;;;;;;5.45;4.200001;;;;;;;2.48;67.90723;95015.56;;;;
2022/04/12 01:21:36;;;;;;;5.45;4.200001;;;;;;;2.48;67.90723;95015.56;;;;
2022/04/12 01:22:46;;;;;;;6.45;4.7;;;;;;;2.41;68.23145;95021.84;;;;
2022/04/12 01:23:51;;;;;;;6.45;4.7;;;;;;;2.41;68.23145;95021.84;;;;
2022/04/12 01:24:58;;;;;;;6.45;4.7;;;;;;;2.41;68.23145;95021.84;;;;
2022/04/12 01:25:59;;;;;;;6.45;4.7;;;;;;;2.41;68.23145;95021.84;;;;
2022/04/12 01:27:00;;;;;;;6.45;4.7;;;;;;;2.41;68.23145;95021.84;;;;
2022/04/12 01:28:01;;;;;;;6.45;4.7;;;;;;;2.41;68.23145;95021.84;;;;
2022/04/12 01:29:01;;;;;;;6.45;4.7;;;;;;;2.41;68.23145;95021.84;;;;
2022/04/12 01:30:02;;;;;;;6.45;4.7;;;;;;;2.41;68.23145;95021.84;;;;
2022/04/12 01:31:03;;;;;;;6.45;4.7;;;;;;;2.41;68.23145;95021.84;;;;
2022/04/12 01:32:07;;;;;;;6.45;4.7;;;;;;;2.41;68.23145;95021.84;;;;
2022/04/12 01:33:08;;;;;;;6.45;4.7;;;;;;;2.41;68.23145;95021.84;;;;
2022/04/12 01:34:09;;;;;;;8.650001;4.700001;;;;;;;2.33;68.42969;95022.38;;;;
2022/04/12 01:35:09;;;;;;;8.650001;4.700001;;;;;;;2.33;68.42969;95022.38;;;;
2022/04/12 01:36:10;;;;;;;8.650001;4.700001;;;;;;;2.33;68.42969;95022.38;;;;
2022/04/12 01:37:10;;;;;;;8.650001;4.700001;;;;;;;2.33;68.42969;95022.38;;;;
2022/04/12 01:38:11;;;;;;;8.650001;4.700001;;;;;;;2.33;68.42969;95022.38;;;;
2022/04/12 01:39:12;;;;;;;8.650001;4.700001;;;;;;;2.33;68.42969;95022.38;;;;
2022/04/12 01:40:12;;;;;;;8.650001;4.700001;;;;;;;2.33;68.42969;95022.38;;;;
2022/04/12 01:41:13;;;;;;;8.650001;4.700001;;;;;;;2.33;68.42969;95022.38;;;;
2022/04/12 01:42:13;;;;;;;8.650001;4.700001;;;;;;;2.33;68.42969;95022.38;;;;
2022/04/12 01:43:15;;;;;;;8.650001;4.700001;;;;;;;2.33;68.42969;95022.38;;;;
2022/04/12 01:44:16;;;;;;;11;5.349999;;;;;;;2.23;68.63379;95014.71;;;;
2022/04/12 01:45:16;;;;;;;11;5.349999;;;;;;;2.23;68.63379;95014.71;;;;
2022/04/12 01:46:17;;;;;;;11;5.349999;;;;;;;2.23;68.63379;95014.71;;;;
2022/04/12 01:47:17;;;;;;;11;5.349999;;;;;;;2.23;68.63379;95014.71;;;;
2022/04/12 01:48:18;;;;;;;11;5.349999;;;;;;;2.23;68.63379;95014.71;;;;
2022/04/12 01:49:18;;;;;;;11;5.349999;;;;;;;2.23;68.63379;95014.71;;;;
2022/04/12 01:50:19;;;;;;;11;5.349999;;;;;;;2.23;68.63379;95014.71;;;;
2022/04/12 01:51:19;;;;;;;11;5.349999;;;;;;;2.23;68.63379;95014.71;;;;
2022/04/12 01:52:21;;;;;;;11;5.349999;;;;;;;2.23;68.63379;95014.71;;;;
2022/04/12 01:53:22;;;;;;;11;5.349999;;;;;;;2.23;68.63379;95014.71;;;;
2022/04/12 01:54:22;;;;;;;11;5.349999;;;;;;;2.23;68.63379;95014.71;;;;
2022/04/12 01:55:23;;;;;;;7.5;4.8;;;;;;;2.04;68.96094;95016.28;;;;
2022/04/12 01:56:24;;;;;;;7.5;4.8;;;;;;;2.04;68.96094;95016.28;;;;
2022/04/12 01:57:25;;;;;;;7.5;4.8;;;;;;;2.04;68.96094;95016.28;;;;
2022/04/12 01:58:25;;;;;;;7.5;4.8;;;;;;;2.04;68.96094;95016.28;;;;
2022/04/12 01:59:25;;;;;;;7.5;4.8;;;;;;;2.04;68.96094;95016.28;;;;
2022/04/12 02:00:26;;;;;;;7.5;4.8;;;;;;;2.04;68.96094;95016.28;;;;
2022/04/12 02:01:26;;;;;;;7.5;4.8;;;;;;;2.04;68.96094;95016.28;;;;
2022/04/12 02:02:27;;;;;;;7.5;4.8;;;;;;;2.04;68.96094;95016.28;;;;
2022/04/12 02:03:27;;;;;;;7.5;4.8;;;;;;;2.04;68.96094;95016.28;;;;
2022/04/12 02:04:28;;;;;;;7.5;4.8;;;;;;;2.04;68.96094;95016.28;;;;
2022/04/12 02:05:28;;;;;;;7.5;4.8;;;;;;;2.04;68.96094;95016.28;;;;
2022/04/12 02:06:29;;;;;;;8.450001;5;;;;;;;1.87;69.52148;95013.95;;;;
2022/04/12 02:07:30;;;;;;;8.450001;5;;;;;;;1.87;69.52148;95013.95;;;;
2022/04/12 02:08:30;;;;;;;8.450001;5;;;;;;;1.87;69.52148;95013.95;;;;
2022/04/12 02:09:31;;;;;;;8.450001;5;;;;;;;1.87;69.52148;95013.95;;;;
2022/04/12 02:10:31;;;;;;;8.450001;5;;;;;;;1.87;69.52148;95013.95;;;;
2022/04/12 02:11:32;;;;;;;8.450001;5;;;;;;;1.87;69.52148;95013.95;;;;
2022/04/12 02:12:32;;;;;;;8.450001;5;;;;;;;1.87;69.52148;95013.95;;;;
2022/04/12 02:13:33;;;;;;;8.450001;5;;;;;;;1.87;69.52148;95013.95;;;;
2022/04/12 02:14:33;;;;;;;8.450001;5;;;;;;;1.87;69.52148;95013.95;;;;
2022/04/12 02:15:34;;;;;;;8.450001;5;;;;;;;1.87;69.52148;95013.95;;;;
2022/04/12 02:16:34;;;;;;;6.15;4.85;;;;;;;1.73;69.84473;95010.43;;;;
2022/04/12 02:17:35;;;;;;;6.15;4.85;;;;;;;1.73;69.84473;95010.43;;;;
2022/04/12 02:18:35;;;;;;;6.15;4.85;;;;;;;1.73;69.84473;95010.43;;;;
2022/04/12 02:19:36;;;;;;;6.15;4.85;;;;;;;1.73;69.84473;95010.43;;;;
2022/04/12 02:20:36;;;;;;;6.15;4.85;;;;;;;1.73;69.84473;95010.43;;;;
2022/04/12 02:21:37;;;;;;;6.15;4.85;;;;;;;1.73;69.84473;95010.43;;;;
2022/04/12 02:22:37;;;;;;;6.15;4.85;;;;;;;1.73;69.84473;95010.43;;;;
2022/04/12 02:23:38;;;;;;;6.15;4.85;;;;;;;1.73;69.84473;95010.43;;;;
2022/04/12 02:24:38;;;;;;;6.15;4.85;;;;;;;1.73;69.84473;95010.43;;;;
2022/04/12 02:25:39;;;;;;;6.15;4.85;;;;;;;1.73;69.84473;95010.43;;;;
2022/04/12 02:26:40;;;;;;;6.15;4.85;;;;;;;1.73;69.84473;95010.43;;;;
2022/04/12 02:27:40;;;;;;;7.849999;5.149999;;;;;;;1.64;70.14453;95023.53;;;;
2022/04/12 02:28:41;;;;;;;7.849999;5.149999;;;;;;;1.64;70.14453;95023.53;;;;
2022/04/12 02:29:41;;;;;;;7.849999;5.149999;;;;;;;1.64;70.14453;95023.53;;;;
2022/04/12 02:30:43;;;;;;;7.849999;5.149999;;;;;;;1.64;70.14453;95023.53;;;;
2022/04/12 02:31:44;;;;;;;7.849999;5.149999;;;;;;;1.64;70.14453;95023.53;;;;
2022/04/12 02:32:44;;;;;;;7.849999;5.149999;;;;;;;1.64;70.14453;95023.53;;;;
2022/04/12 02:33:46;;;;;;;7.849999;5.149999;;;;;;;1.64;70.14453;95023.53;;;;
2022/04/12 02:34:46;;;;;;;7.849999;5.149999;;;;;;;1.64;70.14453;95023.53;;;;
2022/04/12 02:35:47;;;;;;;7.849999;5.149999;;;;;;;1.64;70.14453;95023.53;;;;
2022/04/12 02:36:48;;;;;;;7.849999;5.149999;;;;;;;1.64;70.14453;95023.53;;;;
2022/04/12 02:37:49;;;;;;;6.550001;4.45;;;;;;;1.61;70.41406;95023.92;;;;
2022/04/12 02:38:49;;;;;;;6.550001;4.45;;;;;;;1.61;70.41406;95023.92;;;;
2022/04/12 02:39:50;;;;;;;6.550001;4.45;;;;;;;1.61;70.41406;95023.92;;;;
2022/04/12 02:40:50;;;;;;;6.550001;4.45;;;;;;;1.61;70.41406;95023.92;;;;
2022/04/12 02:41:51;;;;;;;6.550001;4.45;;;;;;;1.61;70.41406;95023.92;;;;
2022/04/12 02:42:51;;;;;;;6.550001;4.45;;;;;;;1.61;70.41406;95023.92;;;;
2022/04/12 02:43:52;;;;;;;6.550001;4.45;;;;;;;1.61;70.41406;95023.92;;;;
2022/04/12 02:44:52;;;;;;;6.550001;4.45;;;;;;;1.61;70.41406;95023.92;;;;
2022/04/12 02:45:53;;;;;;;6.550001;4.45;;;;;;;1.61;70.41406;95023.92;;;;
2022/04/12 02:46:53;;;;;;;6.550001;4.45;;;;;;;1.61;70.41406;95023.92;;;;
2022/04/12 02:47:54;;;;;;;6.550001;4.45;;;;;;;1.61;70.41406;95023.92;;;;
2022/04/12 02:48:54;;;;;;;6.850001;4.450001;;;;;;;1.66;70.67383;95013.03;;;;
2022/04/12 02:49:55;;;;;;;6.850001;4.450001;;;;;;;1.66;70.67383;95013.03;;;;
2022/04/12 02:50:55;;;;;;;6.850001;4.450001;;;;;;;1.66;70.67383;95013.03;;;;
2022/04/12 02:51:56;;;;;;;6.850001;4.450001;;;;;;;1.66;70.67383;95013.03;;;;
2022/04/12 02:52:56;;;;;;;6.850001;4.450001;;;;;;;1.66;70.67383;95013.03;;;;
2022/04/12 02:53:57;;;;;;;6.850001;4.450001;;;;;;;1.66;70.67383;95013.03;;;;
2022/04/12 02:54:57;;;;;;;6.850001;4.450001;;;;;;;1.66;70.67383;95013.03;;;;
2022/04/12 02:55:58;;;;;;;6.850001;4.450001;;;;;;;1.66;70.67383;95013.03;;;;
2022/04/12 02:56:58;;;;;;;6.850001;4.450001;;;;;;;1.66;70.67383;95013.03;;;;
2022/04/12 02:57:59;;;;;;;6.850001;4.450001;;;;;;;1.66;70.67383;95013.03;;;;
2022/04/12 02:58:59;;;;;;;6.850001;4.450001;;;;;;;1.66;70.67383;95013.03;;;;
2022/04/12 03:00:00;;;;;;;6.850001;4.450001;;;;;;;1.66;70.67383;95013.03;;;;
2022/04/12 03:01:00;;;;;;;6.850001;4.450001;;;;;;;1.66;70.67383;95013.03;;;;
2022/04/12 03:02:01;;;;;;;6.850001;4.450001;;;;;;;1.66;70.67383;95013.03;;;;
2022/04/12 03:03:01;;;;;;;6.850001;4.450001;;;;;;;1.66;70.67383;95013.03;;;;
2022/04/12 03:04:02;;;;;;;6.850001;4.450001;;;;;;;1.66;70.67383;95013.03;;;;
2022/04/12 03:05:02;;;;;;;6.850001;4.450001;;;;;;;1.66;70.67383;95013.03;;;;
2022/04/12 03:06:04;;;;;;;6.850001;4.450001;;;;;;;1.66;70.67383;95013.03;;;;
2022/04/12 03:07:04;;;;;;;6.850001;4.450001;;;;;;;1.66;70.67383;95013.03;;;;
2022/04/12 03:08:05;;;;;;;6.850001;4.450001;;;;;;;1.66;70.67383;95013.03;;;;
2022/04/12 03:09:05;;;;;;;6.850001;4.450001;;;;;;;1.66;70.67383;95013.03;;;;
2022/04/12 03:10:06;;;;;;;6.850001;4.450001;;;;;;;1.66;70.67383;95013.03;;;;
2022/04/12 03:11:07;;;;;;;6.850001;4.450001;;;;;;;1.66;70.67383;95013.03;;;;
2022/04/12 03:12:07;;;;;;;6.850001;4.450001;;;;;;;1.66;70.67383;95013.03;;;;
2022/04/12 03:13:09;;;;;;;6.850001;4.450001;;;;;;;1.66;70.67383;95013.03;;;;
2022/04/12 03:14:09;;;;;;;6.850001;4.450001;;;;;;;1.66;70.67383;95013.03;;;;
2022/04/12 03:15:10;;;;;;;6.850001;4.450001;;;;;;;1.66;70.67383;95013.03;;;;
2022/04/12 03:16:11;;;;;;;6.850001;4.450001;;;;;;;1.66;70.67383;95013.03;;;;
2022/04/12 03:17:12;;;;;;;6.850001;4.450001;;;;;;;1.66;70.67383;95013.03;;;;
2022/04/12 03:18:12;;;;;;;6.850001;4.450001;;;;;;;1.66;70.67383;95013.03;;;;
2022/04/12 03:19:12;;;;;;;6.850001;4.450001;;;;;;;1.66;70.67383;95013.03;;;;
2022/04/12 03:20:13;;;;;;;6.850001;4.450001;;;;;;;1.66;70.67383;95013.03;;;;
2022/04/12 03:21:13;;;;;;;4.4;3.45;;;;;;;1.51;71.05762;95007.86;;;;
2022/04/12 03:22:14;;;;;;;4.4;3.45;;;;;;;1.51;71.05762;95007.86;;;;
2022/04/12 03:23:14;;;;;;;4.4;3.45;;;;;;;1.51;71.05762;95007.86;;;;
2022/04/12 03:24:15;;;;;;;4.4;3.45;;;;;;;1.51;71.05762;95007.86;;;;
2022/04/12 03:25:16;;;;;;;4.4;3.45;;;;;;;1.51;71.05762;95007.86;;;;
2022/04/12 03:26:16;;;;;;;4.4;3.45;;;;;;;1.51;71.05762;95007.86;;;;
2022/04/12 03:27:17;;;;;;;4.4;3.45;;;;;;;1.51;71.05762;95007.86;;;;
2022/04/12 03:28:17;;;;;;;4.4;3.45;;;;;;;1.51;71.05762;95007.86;;;;
2022/04/12 03:29:18;;;;;;;4.4;3.45;;;;;;;1.51;71.05762;95007.86;;;;
2022/04/12 03:30:19;;;;;;;4.4;3.45;;;;;;;1.51;71.05762;95007.86;;;;
2022/04/12 03:31:20;;;;;;;4.4;3.45;;;;;;;1.51;71.05762;95007.86;;;;
2022/04/12 03:32:20;;;;;;;4.4;3.45;;;;;;;1.51;71.05762;95007.86;;;;
2022/04/12 03:33:21;;;;;;;4.4;3.45;;;;;;;1.51;71.05762;95007.86;;;;
2022/04/12 03:34:21;;;;;;;4.4;3.45;;;;;;;1.51;71.05762;95007.86;;;;
2022/04/12 03:35:22;;;;;;;4.4;3.45;;;;;;;1.51;71.05762;95007.86;;;;
2022/04/12 03:36:23;;;;;;;4.4;3.45;;;;;;;1.51;71.05762;95007.86;;;;
2022/04/12 03:37:24;;;;;;;4.4;3.45;;;;;;;1.51;71.05762;95007.86;;;;
2022/04/12 03:38:25;;;;;;;4.4;3.45;;;;;;;1.51;71.05762;95007.86;;;;
2022/04/12 03:39:26;;;;;;;4.4;3.45;;;;;;;1.51;71.05762;95007.86;;;;
2022/04/12 03:40:30;;;;;;;4.4;3.45;;;;;;;1.51;71.05762;95007.86;;;;
2022/04/12 03:41:31;;;;;;;4.4;3.45;;;;;;;1.51;71.05762;95007.86;;;;
2022/04/12 03:42:32;;;;;;;6.799999;4.25;;;;;;;1.22;71.61719;94982.65;;;;
2022/04/12 03:43:33;;;;;;;6.799999;4.25;;;;;;;1.22;71.61719;94982.65;;;;
2022/04/12 03:44:34;;;;;;;6.799999;4.25;;;;;;;1.22;71.61719;94982.65;;;;
2022/04/12 03:45:34;;;;;;;6.799999;4.25;;;;;;;1.22;71.61719;94982.65;;;;
2022/04/12 03:46:35;;;;;;;6.799999;4.25;;;;;;;1.22;71.61719;94982.65;;;;
2022/04/12 03:47:35;;;;;;;6.799999;4.25;;;;;;;1.22;71.61719;94982.65;;;;
2022/04/12 03:48:36;;;;;;;6.799999;4.25;;;;;;;1.22;71.61719;94982.65;;;;
2022/04/12 03:49:36;;;;;;;6.799999;4.25;;;;;;;1.22;71.61719;94982.65;;;;
2022/04/12 03:50:37;;;;;;;6.799999;4.25;;;;;;;1.22;71.61719;94982.65;;;;
2022/04/12 03:51:37;;;;;;;6.799999;4.25;;;;;;;1.22;71.61719;94982.65;;;;
2022/04/12 03:52:38;;;;;;;6.45;3.85;;;;;;;1.19;71.75879;94999.38;;;;
2022/04/12 03:53:38;;;;;;;6.45;3.85;;;;;;;1.19;71.75879;94999.38;;;;
2022/04/12 03:54:39;;;;;;;6.45;3.85;;;;;;;1.19;71.75879;94999.38;;;;
2022/04/12 03:55:40;;;;;;;6.45;3.85;;;;;;;1.19;71.75879;94999.38;;;;
2022/04/12 03:56:42;;;;;;;6.45;3.85;;;;;;;1.19;71.75879;94999.38;;;;
2022/04/12 03:57:43;;;;;;;6.45;3.85;;;;;;;1.19;71.75879;94999.38;;;;
2022/04/12 03:58:43;;;;;;;6.45;3.85;;;;;;;1.19;71.75879;94999.38;;;;
2022/04/12 03:59:44;;;;;;;6.45;3.85;;;;;;;1.19;71.75879;94999.38;;;;
2022/04/12 04:00:45;;;;;;;6.45;3.85;;;;;;;1.19;71.75879;94999.38;;;;
2022/04/12 04:01:46;;;;;;;6.45;3.85;;;;;;;1.19;71.75879;94999.38;;;;
2022/04/12 04:02:47;;;;;;;6.45;3.85;;;;;;;1.19;71.75879;94999.38;;;;
2022/04/12 04:03:47;;;;;;;6.45;3.85;;;;;;;1.19;71.75879;94999.38;;;;
2022/04/12 04:04:47;;;;;;;6.45;3.85;;;;;;;1.19;71.75879;94999.38;;;;
2022/04/12 04:05:48;;;;;;;6.45;3.85;;;;;;;1.19;71.75879;94999.38;;;;
2022/04/12 04:06:49;;;;;;;6.45;3.85;;;;;;;1.19;71.75879;94999.38;;;;
2022/04/12 04:07:49;;;;;;;6.45;3.85;;;;;;;1.19;71.75879;94999.38;;;;
2022/04/12 04:08:50;;;;;;;6.45;3.85;;;;;;;1.19;71.75879;94999.38;;;;
2022/04/12 04:09:51;;;;;;;6.45;3.85;;;;;;;1.19;71.75879;94999.38;;;;
2022/04/12 04:10:51;;;;;;;6.45;3.85;;;;;;;1.19;71.75879;94999.38;;;;
2022/04/12 04:11:52;;;;;;;6.45;3.85;;;;;;;1.19;71.75879;94999.38;;;;
2022/04/12 04:12:53;;;;;;;6.45;3.85;;;;;;;1.19;71.75879;94999.38;;;;
2022/04/12 04:13:53;;;;;;;6.400001;3.95;;;;;;;1.08;71.89844;95003.34;;;;
2022/04/12 04:14:55;;;;;;;6.400001;3.95;;;;;;;1.08;71.89844;95003.34;;;;
2022/04/12 04:15:55;;;;;;;6.400001;3.95;;;;;;;1.08;71.89844;95003.34;;;;
2022/04/12 04:16:57;;;;;;;6.400001;3.95;;;;;;;1.08;71.89844;95003.34;;;;
2022/04/12 04:17:57;;;;;;;6.400001;3.95;;;;;;;1.08;71.89844;95003.34;;;;
2022/04/12 04:18:58;;;;;;;6.400001;3.95;;;;;;;1.08;71.89844;95003.34;;;;
2022/04/12 04:19:58;;;;;;;6.400001;3.95;;;;;;;1.08;71.89844;95003.34;;;;
2022/04/12 04:20:59;;;;;;;6.400001;3.95;;;;;;;1.08;71.89844;95003.34;;;;
2022/04/12 04:22:01;;;;;;;6.400001;3.95;;;;;;;1.08;71.89844;95003.34;;;;
2022/04/12 04:23:01;;;;;;;6.400001;3.95;;;;;;;1.08;71.89844;95003.34;;;;
2022/04/12 04:24:02;;;;;;;6.400001;3.95;;;;;;;1.08;71.89844;95003.34;;;;
2022/04/12 04:25:04;;;;;;;5.999999;3.95;;;;;;;1.02;72.05469;95005.42;;;;
2022/04/12 04:26:05;;;;;;;5.999999;3.95;;;;;;;1.02;72.05469;95005.42;;;;
2022/04/12 04:27:05;;;;;;;5.999999;3.95;;;;;;;1.02;72.05469;95005.42;;;;
2022/04/12 04:28:10;;;;;;;5.999999;3.95;;;;;;;1.02;72.05469;95005.42;;;;
2022/04/12 04:29:11;;;;;;;5.999999;3.95;;;;;;;1.02;72.05469;95005.42;;;;
2022/04/12 04:30:11;;;;;;;5.999999;3.95;;;;;;;1.02;72.05469;95005.42;;;;
2022/04/12 04:31:12;;;;;;;5.999999;3.95;;;;;;;1.02;72.05469;95005.42;;;;
2022/04/12 04:32:13;;;;;;;5.999999;3.95;;;;;;;1.02;72.05469;95005.42;;;;
2022/04/12 04:33:14;;;;;;;5.999999;3.95;;;;;;;1.02;72.05469;95005.42;;;;
2022/04/12 04:34:14;;;;;;;5.999999;3.95;;;;;;;1.02;72.05469;95005.42;;;;
2022/04/12 04:35:15;;;;;;;6.600001;4.05;;;;;;;0.91;72.27832;95007.22;;;;
2022/04/12 04:36:15;;;;;;;6.600001;4.05;;;;;;;0.91;72.27832;95007.22;;;;
2022/04/12 04:37:16;;;;;;;6.600001;4.05;;;;;;;0.91;72.27832;95007.22;;;;
2022/04/12 04:38:16;;;;;;;6.600001;4.05;;;;;;;0.91;72.27832;95007.22;;;;
2022/04/12 04:39:17;;;;;;;6.600001;4.05;;;;;;;0.91;72.27832;95007.22;;;;
2022/04/12 04:40:17;;;;;;;6.600001;4.05;;;;;;;0.91;72.27832;95007.22;;;;
2022/04/12 04:41:20;;;;;;;6.600001;4.05;;;;;;;0.91;72.27832;95007.22;;;;
2022/04/12 04:42:21;;;;;;;6.600001;4.05;;;;;;;0.91;72.27832;95007.22;;;;
2022/04/12 04:43:21;;;;;;;6.600001;4.05;;;;;;;0.91;72.27832;95007.22;;;;
2022/04/12 04:44:22;;;;;;;6.600001;4.05;;;;;;;0.91;72.27832;95007.22;;;;
2022/04/12 04:45:23;;;;;;;6.600001;4.05;;;;;;;0.91;72.27832;95007.22;;;;
2022/04/12 04:46:23;;;;;;;6.900001;3.85;;;;;;;0.84;72.65332;94993.02;;;;
2022/04/12 04:47:24;;;;;;;6.900001;3.85;;;;;;;0.84;72.65332;94993.02;;;;
2022/04/12 04:48:24;;;;;;;6.900001;3.85;;;;;;;0.84;72.65332;94993.02;;;;
2022/04/12 04:49:25;;;;;;;6.900001;3.85;;;;;;;0.84;72.65332;94993.02;;;;
2022/04/12 04:50:25;;;;;;;6.900001;3.85;;;;;;;0.84;72.65332;94993.02;;;;
2022/04/12 04:51:27;;;;;;;6.900001;3.85;;;;;;;0.84;72.65332;94993.02;;;;
2022/04/12 04:52:27;;;;;;;6.900001;3.85;;;;;;;0.84;72.65332;94993.02;;;;
2022/04/12 04:53:28;;;;;;;6.900001;3.85;;;;;;;0.84;72.65332;94993.02;;;;
2022/04/12 04:54:28;;;;;;;6.900001;3.85;;;;;;;0.84;72.65332;94993.02;;;;
2022/04/12 04:55:29;;;;;;;6.900001;3.85;;;;;;;0.84;72.65332;94993.02;;;;
2022/04/12 04:56:30;;;;;;;6.900001;3.85;;;;;;;0.84;72.65332;94993.02;;;;
2022/04/12 04:57:30;;;;;;;6.900001;3.85;;;;;;;0.84;72.65332;94993.02;;;;
2022/04/12 04:58:31;;;;;;;6.900001;3.85;;;;;;;0.84;72.65332;94993.02;;;;
2022/04/12 04:59:31;;;;;;;6.900001;3.85;;;;;;;0.84;72.65332;94993.02;;;;
2022/04/12 05:00:34;;;;;;;6.900001;3.85;;;;;;;0.84;72.65332;94993.02;;;;
2022/04/12 05:01:35;;;;;;;6.900001;3.85;;;;;;;0.84;72.65332;94993.02;;;;
2022/04/12 05:02:36;;;;;;;6.900001;3.85;;;;;;;0.84;72.65332;94993.02;;;;
2022/04/12 05:03:36;;;;;;;6.900001;3.85;;;;;;;0.84;72.65332;94993.02;;;;
2022/04/12 05:04:37;;;;;;;6.900001;3.85;;;;;;;0.84;72.65332;94993.02;;;;
2022/04/12 05:05:37;;;;;;;6.900001;3.85;;;;;;;0.84;72.65332;94993.02;;;;
2022/04/12 05:06:38;;;;;;;6.900001;3.85;;;;;;;0.84;72.65332;94993.02;;;;
2022/04/12 05:07:38;;;;;;;5.350001;4.25;;;;;;;0.98;72.95801;95012.19;;;;
2022/04/12 05:08:40;;;;;;;5.350001;4.25;;;;;;;0.98;72.95801;95012.19;;;;
2022/04/12 05:09:40;;;;;;;5.350001;4.25;;;;;;;0.98;72.95801;95012.19;;;;
2022/04/12 05:10:41;;;;;;;5.350001;4.25;;;;;;;0.98;72.95801;95012.19;;;;
2022/04/12 05:11:42;;;;;;;5.350001;4.25;;;;;;;0.98;72.95801;95012.19;;;;
2022/04/12 05:12:42;;;;;;;5.350001;4.25;;;;;;;0.98;72.95801;95012.19;;;;
2022/04/12 05:13:43;;;;;;;5.350001;4.25;;;;;;;0.98;72.95801;95012.19;;;;
2022/04/12 05:14:43;;;;;;;5.350001;4.25;;;;;;;0.98;72.95801;95012.19;;;;
2022/04/12 05:15:44;;;;;;;5.350001;4.25;;;;;;;0.98;72.95801;95012.19;;;;
2022/04/12 05:16:45;;;;;;;5.350001;4.25;;;;;;;0.98;72.95801;95012.19;;;;
2022/04/12 05:17:45;;;;;;;5.600001;4.25;;;;;;;1.1;73.09375;95022.67;;;;
2022/04/12 05:18:48;;;;;;;5.600001;4.25;;;;;;;1.1;73.09375;95022.67;;;;
2022/04/12 05:19:49;;;;;;;5.600001;4.25;;;;;;;1.1;73.09375;95022.67;;;;
2022/04/12 05:20:49;;;;;;;5.600001;4.25;;;;;;;1.1;73.09375;95022.67;;;;
2022/04/12 05:21:50;;;;;;;5.600001;4.25;;;;;;;1.1;73.09375;95022.67;;;;
2022/04/12 05:22:51;;;;;;;5.600001;4.25;;;;;;;1.1;73.09375;95022.67;;;;
2022/04/12 05:23:51;;;;;;;5.600001;4.25;;;;;;;1.1;73.09375;95022.67;;;;
2022/04/12 05:24:52;;;;;;;5.600001;4.25;;;;;;;1.1;73.09375;95022.67;;;;
2022/04/12 05:25:53;;;;;;;5.600001;4.25;;;;;;;1.1;73.09375;95022.67;;;;
2022/04/12 05:26:54;;;;;;;5.600001;4.25;;;;;;;1.1;73.09375;95022.67;;;;
2022/04/12 05:27:55;;;;;;;5.600001;4.25;;;;;;;1.1;73.09375;95022.67;;;;
2022/04/12 05:28:55;;;;;;;5.199999;4.5;;;;;;;1.33;73.20898;95021.54;;;;
2022/04/12 05:29:55;;;;;;;5.199999;4.5;;;;;;;1.33;73.20898;95021.54;;;;
2022/04/12 05:30:57;;;;;;;5.199999;4.5;;;;;;;1.33;73.20898;95021.54;;;;
2022/04/12 05:31:57;;;;;;;5.199999;4.5;;;;;;;1.33;73.20898;95021.54;;;;
2022/04/12 05:32:58;;;;;;;5.199999;4.5;;;;;;;1.33;73.20898;95021.54;;;;
2022/04/12 05:33:58;;;;;;;5.199999;4.5;;;;;;;1.33;73.20898;95021.54;;;;
2022/04/12 05:34:59;;;;;;;5.199999;4.5;;;;;;;1.33;73.20898;95021.54;;;;
2022/04/12 05:35:59;;;;;;;5.199999;4.5;;;;;;;1.33;73.20898;95021.54;;;;
2022/04/12 05:37:00;;;;;;;5.199999;4.5;;;;;;;1.33;73.20898;95021.54;;;;
2022/04/12 05:38:01;;;;;;;5.199999;4.5;;;;;;;1.33;73.20898;95021.54;;;;